sensor_id;sensor_type;location;lat;lon;timestamp;P1;durP1;ratioP1;P2;durP2;ratioP2
32501;SDS011;18952;52.516;13.460;2022-08-05T00:01:57;8.32;;;4.53;;
32501;SDS011;18952;52.516;13.460;2022-08-05T00:04:37;10.52;;;4.43;;
32501;SDS011;18952;52.516;13.460;2022-08-05T00:07:08;9.20;;;4.70;;
32501;SDS011;18952;52.516;13.460;2022-08-05T00:10:01;9.15;;;4.35;;
32501;SDS011;18952;52.516;13.460;2022-08-05T00:12:36;5.78;;;4.05;;
32501;SDS011;18952;52.516;13.460;2022-08-05T00:15:23;11.55;;;3.70;;
32501;SDS011;18952;52.516;13.460;2022-08-05T00:18:16;8.40;;;4.30;;
32501;SDS011;18952;52.516;13.460;2022-08-05T00:20:50;8.80;;;4.07;;
32501;SDS011;18952;52.516;13.460;2022-08-05T00:23:18;10.82;;;4.50;;
32501;SDS011;18952;52.516;13.460;2022-08-05T00:26:15;10.88;;;7.03;;
32501;SDS011;18952;52.516;13.460;2022-08-05T00:28:43;8.10;;;4.88;;
32501;SDS011;18952;52.516;13.460;2022-08-05T00:31:16;8.27;;;4.65;;
32501;SDS011;18952;52.516;13.460;2022-08-05T00:34:09;7.90;;;4.38;;
32501;SDS011;18952;52.516;13.460;2022-08-05T00:37:00;9.73;;;4.38;;
32501;SDS011;18952;52.516;13.460;2022-08-05T00:39:40;8.77;;;3.97;;
32501;SDS011;18952;52.516;13.460;2022-08-05T00:42:11;10.07;;;3.95;;
32501;SDS011;18952;52.516;13.460;2022-08-05T00:44:59;5.90;;;3.97;;
32501;SDS011;18952;52.516;13.460;2022-08-05T00:47:38;7.43;;;3.75;;
32501;SDS011;18952;52.516;13.460;2022-08-05T00:50:30;7.32;;;6.53;;
32501;SDS011;18952;52.516;13.460;2022-08-05T00:53:00;8.15;;;4.63;;
32501;SDS011;18952;52.516;13.460;2022-08-05T00:55:53;4.28;;;3.60;;
32501;SDS011;18952;52.516;13.460;2022-08-05T00:58:23;9.48;;;3.95;;
32501;SDS011;18952;52.516;13.460;2022-08-05T01:00:54;9.63;;;4.25;;
32501;SDS011;18952;52.516;13.460;2022-08-05T01:03:24;4.72;;;3.40;;
32501;SDS011;18952;52.516;13.460;2022-08-05T01:08:32;6.03;;;4.10;;
32501;SDS011;18952;52.516;13.460;2022-08-05T01:11:20;9.57;;;3.38;;
32501;SDS011;18952;52.516;13.460;2022-08-05T01:22:44;8.30;;;3.83;;
32501;SDS011;18952;52.516;13.460;2022-08-05T01:25:53;7.13;;;4.65;;
32501;SDS011;18952;52.516;13.460;2022-08-05T01:28:50;7.05;;;3.95;;
32501;SDS011;18952;52.516;13.460;2022-08-05T01:34:17;8.57;;;3.95;;
32501;SDS011;18952;52.516;13.460;2022-08-05T01:37:04;7.95;;;3.63;;
32501;SDS011;18952;52.516;13.460;2022-08-05T01:39:52;10.20;;;4.47;;
32501;SDS011;18952;52.516;13.460;2022-08-05T01:42:31;7.45;;;4.45;;
32501;SDS011;18952;52.516;13.460;2022-08-05T01:45:08;10.48;;;4.47;;
32501;SDS011;18952;52.516;13.460;2022-08-05T01:47:45;6.57;;;4.43;;
32501;SDS011;18952;52.516;13.460;2022-08-05T01:50:25;7.22;;;4.30;;
32501;SDS011;18952;52.516;13.460;2022-08-05T01:55:38;6.82;;;4.63;;
32501;SDS011;18952;52.516;13.460;2022-08-05T01:58:18;8.80;;;5.00;;
32501;SDS011;18952;52.516;13.460;2022-08-05T02:01:07;9.15;;;4.28;;
32501;SDS011;18952;52.516;13.460;2022-08-05T02:03:51;9.17;;;4.40;;
32501;SDS011;18952;52.516;13.460;2022-08-05T02:06:31;11.05;;;4.45;;
32501;SDS011;18952;52.516;13.460;2022-08-05T02:09:05;6.22;;;4.18;;
32501;SDS011;18952;52.516;13.460;2022-08-05T02:17:17;7.47;;;4.38;;
32501;SDS011;18952;52.516;13.460;2022-08-05T02:20:21;10.00;;;4.20;;
32501;SDS011;18952;52.516;13.460;2022-08-05T02:22:57;7.95;;;4.53;;
32501;SDS011;18952;52.516;13.460;2022-08-05T02:25:37;10.70;;;4.60;;
32501;SDS011;18952;52.516;13.460;2022-08-05T02:31:40;8.80;;;5.10;;
32501;SDS011;18952;52.516;13.460;2022-08-05T02:34:02;12.43;;;4.68;;
32501;SDS011;18952;52.516;13.460;2022-08-05T02:36:42;8.57;;;4.55;;
32501;SDS011;18952;52.516;13.460;2022-08-05T02:39:18;15.40;;;5.00;;
32501;SDS011;18952;52.516;13.460;2022-08-05T02:41:50;8.02;;;4.63;;
32501;SDS011;18952;52.516;13.460;2022-08-05T02:44:29;14.82;;;4.90;;
32501;SDS011;18952;52.516;13.460;2022-08-05T02:47:01;15.85;;;5.20;;
32501;SDS011;18952;52.516;13.460;2022-08-05T02:49:33;11.88;;;4.57;;
32501;SDS011;18952;52.516;13.460;2022-08-05T02:52:14;11.45;;;4.60;;
32501;SDS011;18952;52.516;13.460;2022-08-05T02:54:57;13.82;;;5.07;;
32501;SDS011;18952;52.516;13.460;2022-08-05T02:57:39;15.40;;;4.55;;
32501;SDS011;18952;52.516;13.460;2022-08-05T03:00:32;8.40;;;5.25;;
32501;SDS011;18952;52.516;13.460;2022-08-05T03:03:06;7.68;;;4.78;;
32501;SDS011;18952;52.516;13.460;2022-08-05T03:05:37;11.02;;;4.80;;
32501;SDS011;18952;52.516;13.460;2022-08-05T03:08:30;13.23;;;4.43;;
32501;SDS011;18952;52.516;13.460;2022-08-05T03:11:02;7.85;;;4.85;;
32501;SDS011;18952;52.516;13.460;2022-08-05T03:13:52;10.75;;;4.47;;
32501;SDS011;18952;52.516;13.460;2022-08-05T03:16:30;11.15;;;5.10;;
32501;SDS011;18952;52.516;13.460;2022-08-05T03:18:58;8.07;;;4.07;;
32501;SDS011;18952;52.516;13.460;2022-08-05T03:21:30;13.75;;;4.55;;
32501;SDS011;18952;52.516;13.460;2022-08-05T03:24:08;14.57;;;4.72;;
32501;SDS011;18952;52.516;13.460;2022-08-05T03:26:43;13.45;;;4.60;;
32501;SDS011;18952;52.516;13.460;2022-08-05T03:29:15;11.35;;;4.20;;
32501;SDS011;18952;52.516;13.460;2022-08-05T03:31:47;9.02;;;3.58;;
32501;SDS011;18952;52.516;13.460;2022-08-05T03:34:27;11.05;;;4.00;;
32501;SDS011;18952;52.516;13.460;2022-08-05T03:37:06;13.23;;;4.15;;
32501;SDS011;18952;52.516;13.460;2022-08-05T03:39:35;10.70;;;4.10;;
32501;SDS011;18952;52.516;13.460;2022-08-05T03:42:25;12.73;;;4.45;;
32501;SDS011;18952;52.516;13.460;2022-08-05T03:45:19;10.65;;;3.80;;
32501;SDS011;18952;52.516;13.460;2022-08-05T03:47:50;10.88;;;3.50;;
32501;SDS011;18952;52.516;13.460;2022-08-05T03:50:26;11.25;;;4.65;;
32501;SDS011;18952;52.516;13.460;2022-08-05T03:53:18;10.20;;;3.63;;
32501;SDS011;18952;52.516;13.460;2022-08-05T03:56:16;14.55;;;3.80;;
32501;SDS011;18952;52.516;13.460;2022-08-05T03:59:03;10.57;;;3.78;;
32501;SDS011;18952;52.516;13.460;2022-08-05T04:02:22;9.98;;;3.60;;
32501;SDS011;18952;52.516;13.460;2022-08-05T04:05:09;9.80;;;3.65;;
32501;SDS011;18952;52.516;13.460;2022-08-05T04:07:44;5.85;;;3.83;;
32501;SDS011;18952;52.516;13.460;2022-08-05T04:10:26;14.13;;;3.55;;
32501;SDS011;18952;52.516;13.460;2022-08-05T04:12:59;10.63;;;3.58;;
32501;SDS011;18952;52.516;13.460;2022-08-05T04:15:30;9.35;;;3.90;;
32501;SDS011;18952;52.516;13.460;2022-08-05T04:18:03;9.85;;;3.83;;
32501;SDS011;18952;52.516;13.460;2022-08-05T04:20:38;12.05;;;3.90;;
32501;SDS011;18952;52.516;13.460;2022-08-05T04:23:10;11.48;;;3.45;;
32501;SDS011;18952;52.516;13.460;2022-08-05T04:25:42;11.15;;;3.85;;
32501;SDS011;18952;52.516;13.460;2022-08-05T04:28:27;13.82;;;5.00;;
32501;SDS011;18952;52.516;13.460;2022-08-05T04:30:57;15.38;;;5.07;;
32501;SDS011;18952;52.516;13.460;2022-08-05T04:33:38;14.93;;;5.25;;
32501;SDS011;18952;52.516;13.460;2022-08-05T04:36:29;10.02;;;4.20;;
32501;SDS011;18952;52.516;13.460;2022-08-05T04:39:17;10.50;;;4.00;;
32501;SDS011;18952;52.516;13.460;2022-08-05T04:41:47;7.63;;;3.90;;
32501;SDS011;18952;52.516;13.460;2022-08-05T04:44:18;8.90;;;3.92;;
32501;SDS011;18952;52.516;13.460;2022-08-05T04:46:57;8.35;;;3.80;;
32501;SDS011;18952;52.516;13.460;2022-08-05T04:49:37;9.23;;;3.60;;
32501;SDS011;18952;52.516;13.460;2022-08-05T04:52:29;4.95;;;3.38;;
32501;SDS011;18952;52.516;13.460;2022-08-05T04:55:01;10.82;;;3.95;;
32501;SDS011;18952;52.516;13.460;2022-08-05T04:57:42;10.23;;;4.05;;
32501;SDS011;18952;52.516;13.460;2022-08-05T05:00:15;8.23;;;3.90;;
32501;SDS011;18952;52.516;13.460;2022-08-05T05:02:49;10.85;;;4.00;;
32501;SDS011;18952;52.516;13.460;2022-08-05T05:05:19;7.22;;;3.70;;
32501;SDS011;18952;52.516;13.460;2022-08-05T05:07:56;11.43;;;4.28;;
32501;SDS011;18952;52.516;13.460;2022-08-05T05:13:23;9.68;;;3.72;;
32501;SDS011;18952;52.516;13.460;2022-08-05T05:16:10;10.27;;;3.83;;
32501;SDS011;18952;52.516;13.460;2022-08-05T05:18:41;13.32;;;4.30;;
32501;SDS011;18952;52.516;13.460;2022-08-05T05:21:33;11.48;;;4.03;;
32501;SDS011;18952;52.516;13.460;2022-08-05T05:24:03;9.60;;;4.00;;
32501;SDS011;18952;52.516;13.460;2022-08-05T05:26:35;8.07;;;4.05;;
32501;SDS011;18952;52.516;13.460;2022-08-05T05:29:08;8.18;;;3.90;;
32501;SDS011;18952;52.516;13.460;2022-08-05T05:31:41;6.28;;;3.75;;
32501;SDS011;18952;52.516;13.460;2022-08-05T05:34:13;9.52;;;3.80;;
32501;SDS011;18952;52.516;13.460;2022-08-05T05:36:53;8.73;;;3.83;;
32501;SDS011;18952;52.516;13.460;2022-08-05T05:39:24;12.00;;;4.47;;
32501;SDS011;18952;52.516;13.460;2022-08-05T05:42:02;6.43;;;3.90;;
32501;SDS011;18952;52.516;13.460;2022-08-05T05:44:39;9.30;;;3.92;;
32501;SDS011;18952;52.516;13.460;2022-08-05T05:47:14;11.60;;;4.50;;
32501;SDS011;18952;52.516;13.460;2022-08-05T05:49:48;7.43;;;4.10;;
32501;SDS011;18952;52.516;13.460;2022-08-05T05:52:23;8.82;;;4.05;;
32501;SDS011;18952;52.516;13.460;2022-08-05T05:54:59;14.07;;;3.88;;
32501;SDS011;18952;52.516;13.460;2022-08-05T05:57:41;13.95;;;4.00;;
32501;SDS011;18952;52.516;13.460;2022-08-05T06:00:28;8.35;;;3.88;;
32501;SDS011;18952;52.516;13.460;2022-08-05T06:03:02;10.55;;;3.88;;
32501;SDS011;18952;52.516;13.460;2022-08-05T06:05:52;14.20;;;4.07;;
32501;SDS011;18952;52.516;13.460;2022-08-05T06:08:22;10.45;;;4.43;;
32501;SDS011;18952;52.516;13.460;2022-08-05T06:10:59;11.80;;;4.18;;
32501;SDS011;18952;52.516;13.460;2022-08-05T06:13:27;14.02;;;4.03;;
32501;SDS011;18952;52.516;13.460;2022-08-05T06:16:08;8.43;;;3.70;;
32501;SDS011;18952;52.516;13.460;2022-08-05T06:18:59;9.13;;;4.10;;
32501;SDS011;18952;52.516;13.460;2022-08-05T06:21:34;9.60;;;4.03;;
32501;SDS011;18952;52.516;13.460;2022-08-05T06:24:16;14.05;;;4.07;;
32501;SDS011;18952;52.516;13.460;2022-08-05T06:26:53;10.30;;;4.28;;
32501;SDS011;18952;52.516;13.460;2022-08-05T06:29:24;12.50;;;4.60;;
32501;SDS011;18952;52.516;13.460;2022-08-05T06:32:12;7.53;;;3.80;;
32501;SDS011;18952;52.516;13.460;2022-08-05T06:34:54;10.55;;;3.80;;
32501;SDS011;18952;52.516;13.460;2022-08-05T06:37:27;18.02;;;3.83;;
32501;SDS011;18952;52.516;13.460;2022-08-05T06:40:11;14.43;;;3.50;;
32501;SDS011;18952;52.516;13.460;2022-08-05T06:42:54;9.98;;;3.78;;
32501;SDS011;18952;52.516;13.460;2022-08-05T06:45:54;9.70;;;3.42;;
32501;SDS011;18952;52.516;13.460;2022-08-05T06:48:33;12.68;;;3.30;;
32501;SDS011;18952;52.516;13.460;2022-08-05T06:51:26;8.18;;;3.25;;
32501;SDS011;18952;52.516;13.460;2022-08-05T06:54:00;11.57;;;3.47;;
32501;SDS011;18952;52.516;13.460;2022-08-05T06:56:30;9.88;;;3.75;;
32501;SDS011;18952;52.516;13.460;2022-08-05T06:59:01;8.13;;;3.40;;
32501;SDS011;18952;52.516;13.460;2022-08-05T07:01:38;10.88;;;3.58;;
32501;SDS011;18952;52.516;13.460;2022-08-05T07:04:21;6.88;;;2.90;;
32501;SDS011;18952;52.516;13.460;2022-08-05T07:06:51;8.20;;;2.60;;
32501;SDS011;18952;52.516;13.460;2022-08-05T07:09:24;10.20;;;2.70;;
32501;SDS011;18952;52.516;13.460;2022-08-05T07:11:59;5.45;;;2.35;;
32501;SDS011;18952;52.516;13.460;2022-08-05T07:14:26;9.38;;;3.00;;
32501;SDS011;18952;52.516;13.460;2022-08-05T07:17:01;5.80;;;2.35;;
32501;SDS011;18952;52.516;13.460;2022-08-05T07:19:51;7.70;;;2.78;;
32501;SDS011;18952;52.516;13.460;2022-08-05T07:22:49;6.03;;;2.63;;
32501;SDS011;18952;52.516;13.460;2022-08-05T07:25:16;8.23;;;2.70;;
32501;SDS011;18952;52.516;13.460;2022-08-05T07:28:07;7.13;;;2.50;;
32501;SDS011;18952;52.516;13.460;2022-08-05T07:30:44;7.63;;;2.47;;
32501;SDS011;18952;52.516;13.460;2022-08-05T07:33:22;9.45;;;2.45;;
32501;SDS011;18952;52.516;13.460;2022-08-05T07:36:04;4.70;;;2.50;;
32501;SDS011;18952;52.516;13.460;2022-08-05T07:38:48;9.88;;;2.67;;
32501;SDS011;18952;52.516;13.460;2022-08-05T07:41:22;10.07;;;2.85;;
32501;SDS011;18952;52.516;13.460;2022-08-05T07:44:15;11.40;;;2.40;;
32501;SDS011;18952;52.516;13.460;2022-08-05T07:46:45;8.88;;;2.30;;
32501;SDS011;18952;52.516;13.460;2022-08-05T07:49:17;6.38;;;2.40;;
32501;SDS011;18952;52.516;13.460;2022-08-05T07:51:53;5.90;;;2.30;;
32501;SDS011;18952;52.516;13.460;2022-08-05T07:54:26;5.22;;;2.30;;
32501;SDS011;18952;52.516;13.460;2022-08-05T07:57:14;3.85;;;2.20;;
32501;SDS011;18952;52.516;13.460;2022-08-05T08:00:05;6.03;;;2.40;;
32501;SDS011;18952;52.516;13.460;2022-08-05T08:02:38;4.43;;;2.50;;
32501;SDS011;18952;52.516;13.460;2022-08-05T08:05:27;4.70;;;2.20;;
32501;SDS011;18952;52.516;13.460;2022-08-05T08:07:54;9.32;;;2.72;;
32501;SDS011;18952;52.516;13.460;2022-08-05T08:13:03;7.40;;;2.70;;
32501;SDS011;18952;52.516;13.460;2022-08-05T08:15:31;4.43;;;2.35;;
32501;SDS011;18952;52.516;13.460;2022-08-05T08:18:25;5.43;;;2.28;;
32501;SDS011;18952;52.516;13.460;2022-08-05T08:20:56;7.13;;;2.70;;
32501;SDS011;18952;52.516;13.460;2022-08-05T08:23:42;8.57;;;2.75;;
32501;SDS011;18952;52.516;13.460;2022-08-05T08:26:31;6.10;;;2.40;;
32501;SDS011;18952;52.516;13.460;2022-08-05T08:28:58;9.57;;;2.20;;
32501;SDS011;18952;52.516;13.460;2022-08-05T08:31:48;7.70;;;2.40;;
32501;SDS011;18952;52.516;13.460;2022-08-05T08:34:17;6.18;;;2.35;;
32501;SDS011;18952;52.516;13.460;2022-08-05T08:37:00;9.70;;;2.22;;
32501;SDS011;18952;52.516;13.460;2022-08-05T08:39:32;6.43;;;1.80;;
32501;SDS011;18952;52.516;13.460;2022-08-05T08:42:04;5.45;;;2.47;;
32501;SDS011;18952;52.516;13.460;2022-08-05T08:45:06;8.13;;;2.20;;
32501;SDS011;18952;52.516;13.460;2022-08-05T08:47:53;5.28;;;2.40;;
32501;SDS011;18952;52.516;13.460;2022-08-05T08:50:50;9.65;;;2.55;;
32501;SDS011;18952;52.516;13.460;2022-08-05T08:53:40;5.38;;;2.50;;
32501;SDS011;18952;52.516;13.460;2022-08-05T08:56:13;5.10;;;1.92;;
32501;SDS011;18952;52.516;13.460;2022-08-05T08:58:44;8.77;;;2.22;;
32501;SDS011;18952;52.516;13.460;2022-08-05T09:01:20;4.70;;;2.20;;
32501;SDS011;18952;52.516;13.460;2022-08-05T09:03:52;6.65;;;2.40;;
32501;SDS011;18952;52.516;13.460;2022-08-05T09:06:25;8.05;;;2.40;;
32501;SDS011;18952;52.516;13.460;2022-08-05T09:09:00;6.93;;;2.20;;
32501;SDS011;18952;52.516;13.460;2022-08-05T09:11:29;7.47;;;2.10;;
32501;SDS011;18952;52.516;13.460;2022-08-05T09:14:22;7.82;;;2.65;;
32501;SDS011;18952;52.516;13.460;2022-08-05T09:17:11;5.28;;;2.20;;
32501;SDS011;18952;52.516;13.460;2022-08-05T09:20:05;7.03;;;2.70;;
32501;SDS011;18952;52.516;13.460;2022-08-05T09:25:32;5.43;;;2.60;;
32501;SDS011;18952;52.516;13.460;2022-08-05T09:28:31;7.82;;;2.55;;
32501;SDS011;18952;52.516;13.460;2022-08-05T09:31:07;7.05;;;2.92;;
32501;SDS011;18952;52.516;13.460;2022-08-05T09:34:08;7.05;;;2.33;;
32501;SDS011;18952;52.516;13.460;2022-08-05T09:36:48;3.88;;;2.20;;
32501;SDS011;18952;52.516;13.460;2022-08-05T09:39:25;8.80;;;2.53;;
32501;SDS011;18952;52.516;13.460;2022-08-05T09:42:17;8.40;;;2.17;;
32501;SDS011;18952;52.516;13.460;2022-08-05T09:44:55;6.70;;;2.10;;
32501;SDS011;18952;52.516;13.460;2022-08-05T09:47:46;4.75;;;2.25;;
32501;SDS011;18952;52.516;13.460;2022-08-05T09:50:33;6.57;;;2.22;;
32501;SDS011;18952;52.516;13.460;2022-08-05T09:53:12;6.57;;;2.50;;
32501;SDS011;18952;52.516;13.460;2022-08-05T09:56:03;4.45;;;2.25;;
32501;SDS011;18952;52.516;13.460;2022-08-05T09:58:40;6.18;;;2.20;;
32501;SDS011;18952;52.516;13.460;2022-08-05T10:01:14;7.38;;;3.35;;
32501;SDS011;18952;52.516;13.460;2022-08-05T10:03:59;5.47;;;2.57;;
32501;SDS011;18952;52.516;13.460;2022-08-05T10:06:38;5.65;;;2.92;;
32501;SDS011;18952;52.516;13.460;2022-08-05T10:09:25;11.70;;;3.60;;
32501;SDS011;18952;52.516;13.460;2022-08-05T10:12:08;9.40;;;3.00;;
32501;SDS011;18952;52.516;13.460;2022-08-05T10:15:13;12.25;;;3.00;;
32501;SDS011;18952;52.516;13.460;2022-08-05T10:21:17;10.90;;;3.17;;
32501;SDS011;18952;52.516;13.460;2022-08-05T10:23:44;8.18;;;3.80;;
32501;SDS011;18952;52.516;13.460;2022-08-05T10:26:27;8.43;;;4.18;;
32501;SDS011;18952;52.516;13.460;2022-08-05T10:28:58;8.45;;;3.78;;
32501;SDS011;18952;52.516;13.460;2022-08-05T10:31:28;10.68;;;3.00;;
32501;SDS011;18952;52.516;13.460;2022-08-05T10:34:25;9.00;;;3.35;;
32501;SDS011;18952;52.516;13.460;2022-08-05T10:36:57;11.02;;;3.15;;
32501;SDS011;18952;52.516;13.460;2022-08-05T10:39:32;9.88;;;3.35;;
32501;SDS011;18952;52.516;13.460;2022-08-05T10:42:24;5.80;;;2.78;;
32501;SDS011;18952;52.516;13.460;2022-08-05T10:45:02;5.85;;;2.70;;
32501;SDS011;18952;52.516;13.460;2022-08-05T10:47:57;12.88;;;2.97;;
32501;SDS011;18952;52.516;13.460;2022-08-05T10:53:59;9.80;;;3.00;;
32501;SDS011;18952;52.516;13.460;2022-08-05T10:56:52;8.48;;;3.05;;
32501;SDS011;18952;52.516;13.460;2022-08-05T10:59:29;8.82;;;3.08;;
32501;SDS011;18952;52.516;13.460;2022-08-05T11:02:30;4.97;;;3.03;;
32501;SDS011;18952;52.516;13.460;2022-08-05T11:07:59;5.32;;;2.80;;
32501;SDS011;18952;52.516;13.460;2022-08-05T11:10:52;6.95;;;2.42;;
32501;SDS011;18952;52.516;13.460;2022-08-05T11:13:40;7.32;;;2.65;;
32501;SDS011;18952;52.516;13.460;2022-08-05T11:16:24;7.70;;;2.88;;
32501;SDS011;18952;52.516;13.460;2022-08-05T11:19:29;10.80;;;2.70;;
32501;SDS011;18952;52.516;13.460;2022-08-05T11:25:30;8.00;;;2.65;;
32501;SDS011;18952;52.516;13.460;2022-08-05T11:33:59;3.38;;;1.92;;
32501;SDS011;18952;52.516;13.460;2022-08-05T11:36:48;12.75;;;2.83;;
32501;SDS011;18952;52.516;13.460;2022-08-05T11:42:32;3.17;;;1.70;;
32501;SDS011;18952;52.516;13.460;2022-08-05T11:45:07;3.25;;;2.20;;
32501;SDS011;18952;52.516;13.460;2022-08-05T11:47:49;3.97;;;1.90;;
32501;SDS011;18952;52.516;13.460;2022-08-05T11:50:21;3.15;;;2.22;;
32501;SDS011;18952;52.516;13.460;2022-08-05T11:52:53;6.18;;;2.03;;
32501;SDS011;18952;52.516;13.460;2022-08-05T11:55:24;2.97;;;2.00;;
32501;SDS011;18952;52.516;13.460;2022-08-05T11:58:03;3.60;;;2.20;;
32501;SDS011;18952;52.516;13.460;2022-08-05T12:00:43;6.55;;;2.60;;
32501;SDS011;18952;52.516;13.460;2022-08-05T12:03:19;3.65;;;2.47;;
32501;SDS011;18952;52.516;13.460;2022-08-05T12:06:00;3.58;;;2.30;;
32501;SDS011;18952;52.516;13.460;2022-08-05T12:11:27;4.30;;;2.30;;
32501;SDS011;18952;52.516;13.460;2022-08-05T12:14:08;4.95;;;2.65;;
32501;SDS011;18952;52.516;13.460;2022-08-05T12:16:40;4.40;;;2.60;;
32501;SDS011;18952;52.516;13.460;2022-08-05T12:19:14;4.70;;;2.78;;
32501;SDS011;18952;52.516;13.460;2022-08-05T12:22:10;8.70;;;2.63;;
32501;SDS011;18952;52.516;13.460;2022-08-05T12:24:49;3.47;;;2.30;;
32501;SDS011;18952;52.516;13.460;2022-08-05T12:27:22;5.80;;;2.25;;
32501;SDS011;18952;52.516;13.460;2022-08-05T12:30:06;4.30;;;2.33;;
32501;SDS011;18952;52.516;13.460;2022-08-05T12:32:46;4.75;;;2.38;;
32501;SDS011;18952;52.516;13.460;2022-08-05T12:35:49;5.00;;;2.47;;
32501;SDS011;18952;52.516;13.460;2022-08-05T12:38:21;4.72;;;2.20;;
32501;SDS011;18952;52.516;13.460;2022-08-05T12:40:58;3.90;;;2.35;;
32501;SDS011;18952;52.516;13.460;2022-08-05T12:43:25;6.82;;;2.30;;
32501;SDS011;18952;52.516;13.460;2022-08-05T12:45:59;6.45;;;2.28;;
32501;SDS011;18952;52.516;13.460;2022-08-05T12:48:32;4.25;;;2.45;;
32501;SDS011;18952;52.516;13.460;2022-08-05T12:51:12;4.82;;;2.25;;
32501;SDS011;18952;52.516;13.460;2022-08-05T12:54:03;3.05;;;2.00;;
32501;SDS011;18952;52.516;13.460;2022-08-05T12:56:46;7.03;;;2.20;;
32501;SDS011;18952;52.516;13.460;2022-08-05T12:59:21;5.28;;;2.38;;
32501;SDS011;18952;52.516;13.460;2022-08-05T13:02:27;3.53;;;2.15;;
32501;SDS011;18952;52.516;13.460;2022-08-05T13:07:32;4.68;;;2.13;;
32501;SDS011;18952;52.516;13.460;2022-08-05T13:10:23;5.13;;;2.08;;
32501;SDS011;18952;52.516;13.460;2022-08-05T13:12:55;4.60;;;2.30;;
32501;SDS011;18952;52.516;13.460;2022-08-05T13:15:28;2.63;;;2.10;;
32501;SDS011;18952;52.516;13.460;2022-08-05T13:18:08;4.30;;;2.00;;
32501;SDS011;18952;52.516;13.460;2022-08-05T13:20:47;5.07;;;2.30;;
32501;SDS011;18952;52.516;13.460;2022-08-05T13:23:17;5.32;;;2.53;;
32501;SDS011;18952;52.516;13.460;2022-08-05T13:25:49;9.57;;;2.03;;
32501;SDS011;18952;52.516;13.460;2022-08-05T13:28:30;4.40;;;2.08;;
32501;SDS011;18952;52.516;13.460;2022-08-05T13:30:59;2.83;;;1.50;;
32501;SDS011;18952;52.516;13.460;2022-08-05T13:33:41;3.22;;;1.75;;
32501;SDS011;18952;52.516;13.460;2022-08-05T13:36:33;6.78;;;1.70;;
32501;SDS011;18952;52.516;13.460;2022-08-05T13:39:03;5.85;;;1.85;;
32501;SDS011;18952;52.516;13.460;2022-08-05T13:42:00;4.55;;;1.73;;
32501;SDS011;18952;52.516;13.460;2022-08-05T13:44:41;5.22;;;2.10;;
32501;SDS011;18952;52.516;13.460;2022-08-05T13:47:13;4.85;;;1.92;;
32501;SDS011;18952;52.516;13.460;2022-08-05T13:50:05;5.45;;;1.70;;
32501;SDS011;18952;52.516;13.460;2022-08-05T13:52:41;3.92;;;1.90;;
32501;SDS011;18952;52.516;13.460;2022-08-05T13:55:16;4.57;;;2.00;;
32501;SDS011;18952;52.516;13.460;2022-08-05T13:58:05;6.63;;;1.95;;
32501;SDS011;18952;52.516;13.460;2022-08-05T14:00:37;8.55;;;1.92;;
32501;SDS011;18952;52.516;13.460;2022-08-05T14:03:08;3.30;;;1.90;;
32501;SDS011;18952;52.516;13.460;2022-08-05T14:05:39;3.58;;;1.98;;
32501;SDS011;18952;52.516;13.460;2022-08-05T14:08:31;4.93;;;2.00;;
32501;SDS011;18952;52.516;13.460;2022-08-05T14:11:01;7.38;;;2.00;;
32501;SDS011;18952;52.516;13.460;2022-08-05T14:13:47;3.25;;;1.73;;
32501;SDS011;18952;52.516;13.460;2022-08-05T14:16:24;4.57;;;2.20;;
32501;SDS011;18952;52.516;13.460;2022-08-05T14:18:51;6.93;;;1.98;;
32501;SDS011;18952;52.516;13.460;2022-08-05T14:21:23;5.20;;;2.00;;
32501;SDS011;18952;52.516;13.460;2022-08-05T14:24:14;3.92;;;2.05;;
32501;SDS011;18952;52.516;13.460;2022-08-05T14:26:46;5.10;;;2.08;;
32501;SDS011;18952;52.516;13.460;2022-08-05T14:29:37;5.07;;;1.90;;
32501;SDS011;18952;52.516;13.460;2022-08-05T14:32:04;4.72;;;2.20;;
32501;SDS011;18952;52.516;13.460;2022-08-05T14:34:53;5.07;;;2.20;;
32501;SDS011;18952;52.516;13.460;2022-08-05T14:37:24;3.05;;;2.22;;
32501;SDS011;18952;52.516;13.460;2022-08-05T14:40:13;3.35;;;2.10;;
32501;SDS011;18952;52.516;13.460;2022-08-05T14:42:43;6.47;;;2.45;;
32501;SDS011;18952;52.516;13.460;2022-08-05T14:45:20;11.55;;;2.65;;
32501;SDS011;18952;52.516;13.460;2022-08-05T14:47:50;6.07;;;2.60;;
32501;SDS011;18952;52.516;13.460;2022-08-05T14:50:32;4.82;;;2.53;;
32501;SDS011;18952;52.516;13.460;2022-08-05T14:53:06;4.38;;;2.45;;
32501;SDS011;18952;52.516;13.460;2022-08-05T14:55:44;6.28;;;2.70;;
32501;SDS011;18952;52.516;13.460;2022-08-05T14:58:19;6.18;;;2.67;;
32501;SDS011;18952;52.516;13.460;2022-08-05T15:00:46;3.92;;;2.67;;
32501;SDS011;18952;52.516;13.460;2022-08-05T15:03:29;6.93;;;2.75;;
32501;SDS011;18952;52.516;13.460;2022-08-05T15:06:06;5.85;;;2.70;;
32501;SDS011;18952;52.516;13.460;2022-08-05T15:08:42;3.70;;;2.42;;
32501;SDS011;18952;52.516;13.460;2022-08-05T15:11:30;4.15;;;2.65;;
32501;SDS011;18952;52.516;13.460;2022-08-05T15:14:20;5.70;;;2.80;;
32501;SDS011;18952;52.516;13.460;2022-08-05T15:17:07;4.15;;;2.75;;
32501;SDS011;18952;52.516;13.460;2022-08-05T15:20:02;4.18;;;2.70;;
32501;SDS011;18952;52.516;13.460;2022-08-05T15:22:29;6.97;;;3.08;;
32501;SDS011;18952;52.516;13.460;2022-08-05T15:25:02;5.07;;;3.10;;
32501;SDS011;18952;52.516;13.460;2022-08-05T15:27:41;7.63;;;3.50;;
32501;SDS011;18952;52.516;13.460;2022-08-05T15:30:21;5.28;;;3.03;;
32501;SDS011;18952;52.516;13.460;2022-08-05T15:32:49;5.85;;;2.72;;
32501;SDS011;18952;52.516;13.460;2022-08-05T15:35:21;8.65;;;3.40;;
32501;SDS011;18952;52.516;13.460;2022-08-05T15:37:53;7.68;;;3.50;;
32501;SDS011;18952;52.516;13.460;2022-08-05T15:40:47;10.60;;;3.75;;
32501;SDS011;18952;52.516;13.460;2022-08-05T15:43:37;5.85;;;3.30;;
32501;SDS011;18952;52.516;13.460;2022-08-05T15:46:13;7.85;;;3.80;;
32501;SDS011;18952;52.516;13.460;2022-08-05T15:48:40;9.05;;;3.60;;
32501;SDS011;18952;52.516;13.460;2022-08-05T15:51:28;5.72;;;3.50;;
32501;SDS011;18952;52.516;13.460;2022-08-05T15:54:17;7.38;;;4.07;;
32501;SDS011;18952;52.516;13.460;2022-08-05T15:56:59;8.95;;;3.95;;
32501;SDS011;18952;52.516;13.460;2022-08-05T15:59:28;9.10;;;3.85;;
32501;SDS011;18952;52.516;13.460;2022-08-05T16:01:57;5.47;;;3.90;;
32501;SDS011;18952;52.516;13.460;2022-08-05T16:04:35;8.02;;;3.78;;
32501;SDS011;18952;52.516;13.460;2022-08-05T16:07:04;7.03;;;4.07;;
32501;SDS011;18952;52.516;13.460;2022-08-05T16:09:37;7.97;;;3.83;;
32501;SDS011;18952;52.516;13.460;2022-08-05T16:12:08;8.98;;;3.80;;
32501;SDS011;18952;52.516;13.460;2022-08-05T16:14:41;6.47;;;3.75;;
32501;SDS011;18952;52.516;13.460;2022-08-05T16:17:13;5.97;;;3.30;;
32501;SDS011;18952;52.516;13.460;2022-08-05T16:19:44;8.77;;;3.55;;
32501;SDS011;18952;52.516;13.460;2022-08-05T16:22:37;7.85;;;3.80;;
32501;SDS011;18952;52.516;13.460;2022-08-05T16:25:08;7.72;;;4.15;;
32501;SDS011;18952;52.516;13.460;2022-08-05T16:28:00;5.68;;;3.72;;
32501;SDS011;18952;52.516;13.460;2022-08-05T16:30:37;6.18;;;3.95;;
32501;SDS011;18952;52.516;13.460;2022-08-05T16:33:07;7.93;;;3.90;;
32501;SDS011;18952;52.516;13.460;2022-08-05T16:35:36;6.68;;;3.80;;
32501;SDS011;18952;52.516;13.460;2022-08-05T16:38:09;6.15;;;3.58;;
32501;SDS011;18952;52.516;13.460;2022-08-05T16:40:53;10.32;;;3.90;;
32501;SDS011;18952;52.516;13.460;2022-08-05T16:43:28;7.25;;;4.30;;
32501;SDS011;18952;52.516;13.460;2022-08-05T16:46:00;8.63;;;4.60;;